sensor_id;sensor_type;location;lat;lon;timestamp;temperature;humidity
15717;DHT22;7960;50.908;4.204;2022-09-12T00:01:14;17.90;99.90
15717;DHT22;7960;50.908;4.204;2022-09-12T00:03:41;18.00;99.90
15717;DHT22;7960;50.908;4.204;2022-09-12T00:06:11;17.90;99.90
15717;DHT22;7960;50.908;4.204;2022-09-12T00:08:41;17.80;99.90
15717;DHT22;7960;50.908;4.204;2022-09-12T00:11:10;17.60;99.90
15717;DHT22;7960;50.908;4.204;2022-09-12T00:13:38;17.40;99.90
15717;DHT22;7960;50.908;4.204;2022-09-12T00:16:05;17.50;99.90
15717;DHT22;7960;50.908;4.204;2022-09-12T00:18:33;17.40;99.90
15717;DHT22;7960;50.908;4.204;2022-09-12T00:21:02;17.30;99.90
15717;DHT22;7960;50.908;4.204;2022-09-12T00:23:30;17.10;99.90
15717;DHT22;7960;50.908;4.204;2022-09-12T00:25:58;17.00;99.90
15717;DHT22;7960;50.908;4.204;2022-09-12T00:28:25;17.10;99.90
15717;DHT22;7960;50.908;4.204;2022-09-12T00:30:52;17.20;99.90
15717;DHT22;7960;50.908;4.204;2022-09-12T00:33:19;17.10;99.90
15717;DHT22;7960;50.908;4.204;2022-09-12T00:35:48;17.00;99.90
15717;DHT22;7960;50.908;4.204;2022-09-12T00:38:18;16.90;99.90
15717;DHT22;7960;50.908;4.204;2022-09-12T00:40:45;16.90;99.90
15717;DHT22;7960;50.908;4.204;2022-09-12T00:43:31;16.80;99.90
15717;DHT22;7960;50.908;4.204;2022-09-12T00:46:02;16.80;99.90
15717;DHT22;7960;50.908;4.204;2022-09-12T00:48:34;16.70;99.90
15717;DHT22;7960;50.908;4.204;2022-09-12T00:51:02;16.90;99.90
15717;DHT22;7960;50.908;4.204;2022-09-12T00:53:29;17.00;99.90
15717;DHT22;7960;50.908;4.204;2022-09-12T00:55:57;17.00;99.90
15717;DHT22;7960;50.908;4.204;2022-09-12T00:58:30;17.00;99.90
15717;DHT22;7960;50.908;4.204;2022-09-12T01:00:57;17.00;99.90
15717;DHT22;7960;50.908;4.204;2022-09-12T01:03:25;17.20;99.90
15717;DHT22;7960;50.908;4.204;2022-09-12T01:05:58;17.20;99.90
15717;DHT22;7960;50.908;4.204;2022-09-12T01:08:28;17.20;99.90
15717;DHT22;7960;50.908;4.204;2022-09-12T01:10:55;17.10;99.90
15717;DHT22;7960;50.908;4.204;2022-09-12T01:13:22;17.00;99.90
15717;DHT22;7960;50.908;4.204;2022-09-12T01:15:51;16.90;99.90
15717;DHT22;7960;50.908;4.204;2022-09-12T01:18:23;16.80;99.90
15717;DHT22;7960;50.908;4.204;2022-09-12T01:21:02;16.90;99.90
15717;DHT22;7960;50.908;4.204;2022-09-12T01:27:06;16.90;99.90
15717;DHT22;7960;50.908;4.204;2022-09-12T01:35:46;16.80;99.90
15717;DHT22;7960;50.908;4.204;2022-09-12T01:38:24;16.80;99.90
15717;DHT22;7960;50.908;4.204;2022-09-12T01:40:59;17.00;99.90
15717;DHT22;7960;50.908;4.204;2022-09-12T01:43:31;17.10;99.90
15717;DHT22;7960;50.908;4.204;2022-09-12T01:46:05;17.10;99.90
15717;DHT22;7960;50.908;4.204;2022-09-12T01:48:42;17.00;99.90
15717;DHT22;7960;50.908;4.204;2022-09-12T01:51:17;16.80;99.90
15717;DHT22;7960;50.908;4.204;2022-09-12T01:53:49;16.60;99.90
15717;DHT22;7960;50.908;4.204;2022-09-12T01:56:21;16.60;99.90
15717;DHT22;7960;50.908;4.204;2022-09-12T01:58:54;16.70;99.90
15717;DHT22;7960;50.908;4.204;2022-09-12T02:01:25;16.70;99.90
15717;DHT22;7960;50.908;4.204;2022-09-12T02:03:59;16.60;99.90
15717;DHT22;7960;50.908;4.204;2022-09-12T02:06:34;16.40;99.90
15717;DHT22;7960;50.908;4.204;2022-09-12T02:09:06;16.40;99.90
15717;DHT22;7960;50.908;4.204;2022-09-12T02:11:39;16.40;99.90
15717;DHT22;7960;50.908;4.204;2022-09-12T02:14:10;16.40;99.90
15717;DHT22;7960;50.908;4.204;2022-09-12T02:16:41;16.40;99.90
15717;DHT22;7960;50.908;4.204;2022-09-12T02:19:14;16.40;99.90
15717;DHT22;7960;50.908;4.204;2022-09-12T02:21:45;16.50;99.90
15717;DHT22;7960;50.908;4.204;2022-09-12T02:24:14;16.50;99.90
15717;DHT22;7960;50.908;4.204;2022-09-12T02:26:45;16.50;99.90
15717;DHT22;7960;50.908;4.204;2022-09-12T02:29:13;16.50;99.90
15717;DHT22;7960;50.908;4.204;2022-09-12T02:31:44;16.60;99.90
15717;DHT22;7960;50.908;4.204;2022-09-12T02:34:23;16.60;99.90
15717;DHT22;7960;50.908;4.204;2022-09-12T02:37:01;16.60;99.90
15717;DHT22;7960;50.908;4.204;2022-09-12T02:39:30;16.60;99.90
15717;DHT22;7960;50.908;4.204;2022-09-12T02:41:59;16.60;99.90
15717;DHT22;7960;50.908;4.204;2022-09-12T02:44:27;16.60;99.90
15717;DHT22;7960;50.908;4.204;2022-09-12T02:46:59;16.50;99.90
15717;DHT22;7960;50.908;4.204;2022-09-12T02:49:28;16.40;99.90
15717;DHT22;7960;50.908;4.204;2022-09-12T02:51:55;16.40;99.90
15717;DHT22;7960;50.908;4.204;2022-09-12T02:54:23;16.40;99.90
15717;DHT22;7960;50.908;4.204;2022-09-12T02:56:50;16.40;99.90
15717;DHT22;7960;50.908;4.204;2022-09-12T02:59:18;16.40;99.90
15717;DHT22;7960;50.908;4.204;2022-09-12T03:02:06;16.40;99.90
15717;DHT22;7960;50.908;4.204;2022-09-12T03:05:02;16.50;99.90
15717;DHT22;7960;50.908;4.204;2022-09-12T03:07:49;16.40;99.90
15717;DHT22;7960;50.908;4.204;2022-09-12T03:10:24;16.30;99.90
15717;DHT22;7960;50.908;4.204;2022-09-12T03:13:04;16.20;99.90
15717;DHT22;7960;50.908;4.204;2022-09-12T03:15:40;16.30;99.90
15717;DHT22;7960;50.908;4.204;2022-09-12T03:18:18;16.30;99.90
15717;DHT22;7960;50.908;4.204;2022-09-12T03:20:54;16.20;99.90
15717;DHT22;7960;50.908;4.204;2022-09-12T03:23:30;16.20;99.90
15717;DHT22;7960;50.908;4.204;2022-09-12T03:26:01;16.20;99.90
15717;DHT22;7960;50.908;4.204;2022-09-12T03:28:32;16.20;99.90
15717;DHT22;7960;50.908;4.204;2022-09-12T03:31:10;16.30;99.90
15717;DHT22;7960;50.908;4.204;2022-09-12T03:33:37;16.50;99.90
15717;DHT22;7960;50.908;4.204;2022-09-12T03:36:12;16.60;99.90
15717;DHT22;7960;50.908;4.204;2022-09-12T03:38:40;16.70;99.90
15717;DHT22;7960;50.908;4.204;2022-09-12T03:41:07;16.80;99.90
15717;DHT22;7960;50.908;4.204;2022-09-12T03:43:34;16.80;99.90
15717;DHT22;7960;50.908;4.204;2022-09-12T03:46:01;16.60;99.90
15717;DHT22;7960;50.908;4.204;2022-09-12T03:48:28;16.40;99.90
15717;DHT22;7960;50.908;4.204;2022-09-12T03:50:59;16.50;99.90
15717;DHT22;7960;50.908;4.204;2022-09-12T03:53:28;16.30;99.90
15717;DHT22;7960;50.908;4.204;2022-09-12T03:55:55;16.10;99.90
15717;DHT22;7960;50.908;4.204;2022-09-12T03:58:22;16.00;99.90
15717;DHT22;7960;50.908;4.204;2022-09-12T04:00:49;16.00;99.90
15717;DHT22;7960;50.908;4.204;2022-09-12T04:03:16;15.90;99.90
15717;DHT22;7960;50.908;4.204;2022-09-12T04:05:44;15.90;99.90
15717;DHT22;7960;50.908;4.204;2022-09-12T04:08:11;15.90;99.90
15717;DHT22;7960;50.908;4.204;2022-09-12T04:10:40;15.80;99.90
15717;DHT22;7960;50.908;4.204;2022-09-12T04:13:07;16.00;99.90
15717;DHT22;7960;50.908;4.204;2022-09-12T04:15:34;16.20;99.90
15717;DHT22;7960;50.908;4.204;2022-09-12T04:18:01;16.20;99.90
15717;DHT22;7960;50.908;4.204;2022-09-12T04:20:27;16.30;99.90
15717;DHT22;7960;50.908;4.204;2022-09-12T04:22:54;16.20;99.90
15717;DHT22;7960;50.908;4.204;2022-09-12T04:25:21;15.80;99.90
15717;DHT22;7960;50.908;4.204;2022-09-12T04:27:50;15.90;99.90
15717;DHT22;7960;50.908;4.204;2022-09-12T04:30:17;15.90;99.90
15717;DHT22;7960;50.908;4.204;2022-09-12T04:32:44;16.00;99.90
15717;DHT22;7960;50.908;4.204;2022-09-12T04:35:11;15.90;99.90
15717;DHT22;7960;50.908;4.204;2022-09-12T04:37:38;15.60;99.90
15717;DHT22;7960;50.908;4.204;2022-09-12T04:40:06;15.90;99.90
15717;DHT22;7960;50.908;4.204;2022-09-12T04:42:33;15.80;99.90
15717;DHT22;7960;50.908;4.204;2022-09-12T04:45:01;15.90;99.90
15717;DHT22;7960;50.908;4.204;2022-09-12T04:47:30;15.90;99.90
15717;DHT22;7960;50.908;4.204;2022-09-12T04:49:57;15.80;99.90
15717;DHT22;7960;50.908;4.204;2022-09-12T04:52:24;15.80;99.90
15717;DHT22;7960;50.908;4.204;2022-09-12T04:54:51;15.60;99.90
15717;DHT22;7960;50.908;4.204;2022-09-12T04:57:18;15.70;99.90
15717;DHT22;7960;50.908;4.204;2022-09-12T04:59:45;15.70;99.90
15717;DHT22;7960;50.908;4.204;2022-09-12T05:02:14;15.60;99.90
15717;DHT22;7960;50.908;4.204;2022-09-12T05:04:40;15.70;99.90
15717;DHT22;7960;50.908;4.204;2022-09-12T05:07:07;15.60;99.90
15717;DHT22;7960;50.908;4.204;2022-09-12T05:09:34;15.60;99.90
15717;DHT22;7960;50.908;4.204;2022-09-12T05:12:02;15.50;99.90
15717;DHT22;7960;50.908;4.204;2022-09-12T05:14:30;15.60;99.90
15717;DHT22;7960;50.908;4.204;2022-09-12T05:16:57;15.60;99.90
15717;DHT22;7960;50.908;4.204;2022-09-12T05:19:28;15.50;99.90
15717;DHT22;7960;50.908;4.204;2022-09-12T05:21:55;15.60;99.90
15717;DHT22;7960;50.908;4.204;2022-09-12T05:24:22;15.70;99.90
15717;DHT22;7960;50.908;4.204;2022-09-12T05:26:49;15.80;99.90
15717;DHT22;7960;50.908;4.204;2022-09-12T05:29:16;15.60;99.90
15717;DHT22;7960;50.908;4.204;2022-09-12T05:31:44;15.60;99.90
15717;DHT22;7960;50.908;4.204;2022-09-12T05:34:16;15.60;99.90
15717;DHT22;7960;50.908;4.204;2022-09-12T05:36:45;15.60;99.90
15717;DHT22;7960;50.908;4.204;2022-09-12T05:39:12;15.60;99.90
15717;DHT22;7960;50.908;4.204;2022-09-12T05:41:39;15.50;99.90
15717;DHT22;7960;50.908;4.204;2022-09-12T05:44:12;15.40;99.90
15717;DHT22;7960;50.908;4.204;2022-09-12T05:46:41;15.60;99.90
15717;DHT22;7960;50.908;4.204;2022-09-12T05:49:10;15.70;99.90
15717;DHT22;7960;50.908;4.204;2022-09-12T05:51:40;15.60;99.90
15717;DHT22;7960;50.908;4.204;2022-09-12T05:54:10;15.50;99.90
15717;DHT22;7960;50.908;4.204;2022-09-12T05:56:39;15.60;99.90
15717;DHT22;7960;50.908;4.204;2022-09-12T05:59:09;15.50;99.90
15717;DHT22;7960;50.908;4.204;2022-09-12T06:01:37;15.60;99.90
15717;DHT22;7960;50.908;4.204;2022-09-12T06:04:05;15.60;99.90
15717;DHT22;7960;50.908;4.204;2022-09-12T06:06:36;15.70;99.90
15717;DHT22;7960;50.908;4.204;2022-09-12T06:09:04;15.60;99.90
15717;DHT22;7960;50.908;4.204;2022-09-12T06:11:35;15.60;99.90
15717;DHT22;7960;50.908;4.204;2022-09-12T06:14:04;15.50;99.90
15717;DHT22;7960;50.908;4.204;2022-09-12T06:16:32;15.50;99.90
15717;DHT22;7960;50.908;4.204;2022-09-12T06:19:02;15.40;99.90
15717;DHT22;7960;50.908;4.204;2022-09-12T06:21:31;15.60;99.90
15717;DHT22;7960;50.908;4.204;2022-09-12T06:24:00;15.60;99.90
15717;DHT22;7960;50.908;4.204;2022-09-12T06:26:27;15.70;99.90
15717;DHT22;7960;50.908;4.204;2022-09-12T06:28:57;15.80;99.90
15717;DHT22;7960;50.908;4.204;2022-09-12T06:31:26;15.90;99.90
15717;DHT22;7960;50.908;4.204;2022-09-12T06:33:55;15.80;99.90
15717;DHT22;7960;50.908;4.204;2022-09-12T06:36:24;15.90;99.90
15717;DHT22;7960;50.908;4.204;2022-09-12T06:38:55;15.90;99.90
15717;DHT22;7960;50.908;4.204;2022-09-12T06:41:23;15.80;99.90
15717;DHT22;7960;50.908;4.204;2022-09-12T06:43:50;16.00;99.90
15717;DHT22;7960;50.908;4.204;2022-09-12T06:46:18;16.20;99.90
15717;DHT22;7960;50.908;4.204;2022-09-12T06:48:46;16.00;99.90
15717;DHT22;7960;50.908;4.204;2022-09-12T06:51:14;16.00;99.90
15717;DHT22;7960;50.908;4.204;2022-09-12T06:53:42;16.10;99.90
15717;DHT22;7960;50.908;4.204;2022-09-12T06:56:11;16.10;99.90
15717;DHT22;7960;50.908;4.204;2022-09-12T06:58:39;16.10;99.90
15717;DHT22;7960;50.908;4.204;2022-09-12T07:01:07;16.20;99.90
15717;DHT22;7960;50.908;4.204;2022-09-12T07:03:36;16.20;99.90
15717;DHT22;7960;50.908;4.204;2022-09-12T07:06:04;16.30;99.90
15717;DHT22;7960;50.908;4.204;2022-09-12T07:08:32;16.30;99.90
15717;DHT22;7960;50.908;4.204;2022-09-12T07:11:08;16.50;99.90
15717;DHT22;7960;50.908;4.204;2022-09-12T07:13:35;16.50;99.90
15717;DHT22;7960;50.908;4.204;2022-09-12T07:16:02;16.70;99.90
15717;DHT22;7960;50.908;4.204;2022-09-12T07:18:29;16.80;99.90
15717;DHT22;7960;50.908;4.204;2022-09-12T07:21:00;17.00;99.90
15717;DHT22;7960;50.908;4.204;2022-09-12T07:23:27;17.10;99.90
15717;DHT22;7960;50.908;4.204;2022-09-12T07:25:55;17.20;99.90
15717;DHT22;7960;50.908;4.204;2022-09-12T07:28:22;17.20;99.90
15717;DHT22;7960;50.908;4.204;2022-09-12T07:30:50;17.20;99.90
15717;DHT22;7960;50.908;4.204;2022-09-12T07:33:18;17.20;99.90
15717;DHT22;7960;50.908;4.204;2022-09-12T07:35:46;17.20;99.90
15717;DHT22;7960;50.908;4.204;2022-09-12T07:38:15;17.40;99.90
15717;DHT22;7960;50.908;4.204;2022-09-12T07:40:42;17.60;99.90
15717;DHT22;7960;50.908;4.204;2022-09-12T07:43:09;17.70;99.90
15717;DHT22;7960;50.908;4.204;2022-09-12T07:45:36;17.70;99.90
15717;DHT22;7960;50.908;4.204;2022-09-12T07:48:05;17.60;99.90
15717;DHT22;7960;50.908;4.204;2022-09-12T07:50:32;17.60;99.90
15717;DHT22;7960;50.908;4.204;2022-09-12T07:53:02;17.70;99.90
15717;DHT22;7960;50.908;4.204;2022-09-12T07:55:31;17.70;99.90
15717;DHT22;7960;50.908;4.204;2022-09-12T07:57:58;17.80;99.90
15717;DHT22;7960;50.908;4.204;2022-09-12T08:00:25;17.80;99.90
15717;DHT22;7960;50.908;4.204;2022-09-12T08:03:00;18.00;99.90
15717;DHT22;7960;50.908;4.204;2022-09-12T08:05:28;18.10;99.90
15717;DHT22;7960;50.908;4.204;2022-09-12T08:07:55;18.10;99.90
15717;DHT22;7960;50.908;4.204;2022-09-12T08:10:22;18.20;99.90
15717;DHT22;7960;50.908;4.204;2022-09-12T08:12:50;18.20;99.90
15717;DHT22;7960;50.908;4.204;2022-09-12T08:15:17;18.20;99.90
15717;DHT22;7960;50.908;4.204;2022-09-12T08:17:45;18.30;99.90
15717;DHT22;7960;50.908;4.204;2022-09-12T08:20:12;18.50;99.90
15717;DHT22;7960;50.908;4.204;2022-09-12T08:22:38;18.60;99.90
15717;DHT22;7960;50.908;4.204;2022-09-12T08:25:06;18.60;99.90
15717;DHT22;7960;50.908;4.204;2022-09-12T08:27:33;18.50;99.90
15717;DHT22;7960;50.908;4.204;2022-09-12T08:30:02;18.70;99.90
15717;DHT22;7960;50.908;4.204;2022-09-12T08:32:29;18.60;99.90
15717;DHT22;7960;50.908;4.204;2022-09-12T08:34:56;18.70;99.90
15717;DHT22;7960;50.908;4.204;2022-09-12T08:37:23;18.80;99.90
15717;DHT22;7960;50.908;4.204;2022-09-12T08:39:50;18.90;99.90
15717;DHT22;7960;50.908;4.204;2022-09-12T08:42:25;19.00;99.90
15717;DHT22;7960;50.908;4.204;2022-09-12T08:45:07;19.20;99.90
15717;DHT22;7960;50.908;4.204;2022-09-12T08:47:37;19.40;99.90
15717;DHT22;7960;50.908;4.204;2022-09-12T08:50:13;19.60;99.90
15717;DHT22;7960;50.908;4.204;2022-09-12T08:52:50;19.70;99.90
15717;DHT22;7960;50.908;4.204;2022-09-12T08:55:33;19.80;99.90
15717;DHT22;7960;50.908;4.204;2022-09-12T08:58:09;19.90;99.90
15717;DHT22;7960;50.908;4.204;2022-09-12T09:00:46;20.00;99.90
15717;DHT22;7960;50.908;4.204;2022-09-12T09:03:42;20.10;99.90
15717;DHT22;7960;50.908;4.204;2022-09-12T09:06:23;20.20;99.90
15717;DHT22;7960;50.908;4.204;2022-09-12T09:08:59;20.20;99.90
15717;DHT22;7960;50.908;4.204;2022-09-12T09:11:40;20.30;99.90
15717;DHT22;7960;50.908;4.204;2022-09-12T09:14:27;20.60;99.90
15717;DHT22;7960;50.908;4.204;2022-09-12T09:17:17;20.50;99.90
15717;DHT22;7960;50.908;4.204;2022-09-12T09:19:49;20.60;99.90
15717;DHT22;7960;50.908;4.204;2022-09-12T09:22:24;20.80;99.90
15717;DHT22;7960;50.908;4.204;2022-09-12T09:24:59;21.20;99.90
15717;DHT22;7960;50.908;4.204;2022-09-12T09:27:31;21.30;99.90
15717;DHT22;7960;50.908;4.204;2022-09-12T09:30:00;21.10;99.90
15717;DHT22;7960;50.908;4.204;2022-09-12T09:32:31;21.10;99.90
15717;DHT22;7960;50.908;4.204;2022-09-12T09:35:00;21.20;99.90
15717;DHT22;7960;50.908;4.204;2022-09-12T09:37:33;21.40;99.90
15717;DHT22;7960;50.908;4.204;2022-09-12T09:40:12;21.60;99.90
15717;DHT22;7960;50.908;4.204;2022-09-12T09:42:47;21.80;99.90
15717;DHT22;7960;50.908;4.204;2022-09-12T09:45:19;21.90;99.90
15717;DHT22;7960;50.908;4.204;2022-09-12T09:47:50;22.30;99.90
15717;DHT22;7960;50.908;4.204;2022-09-12T09:50:19;22.50;99.90
15717;DHT22;7960;50.908;4.204;2022-09-12T09:52:46;22.30;99.90
15717;DHT22;7960;50.908;4.204;2022-09-12T09:55:18;22.30;99.90
15717;DHT22;7960;50.908;4.204;2022-09-12T09:57:46;22.20;99.90
15717;DHT22;7960;50.908;4.204;2022-09-12T10:00:26;22.30;99.90
15717;DHT22;7960;50.908;4.204;2022-09-12T10:03:24;22.50;99.90
15717;DHT22;7960;50.908;4.204;2022-09-12T10:05:55;22.40;99.90
15717;DHT22;7960;50.908;4.204;2022-09-12T10:08:24;22.40;99.90
15717;DHT22;7960;50.908;4.204;2022-09-12T10:10:53;22.60;99.90
15717;DHT22;7960;50.908;4.204;2022-09-12T10:13:33;22.80;99.90
15717;DHT22;7960;50.908;4.204;2022-09-12T10:16:02;23.00;99.90
15717;DHT22;7960;50.908;4.204;2022-09-12T10:18:39;23.10;99.90
15717;DHT22;7960;50.908;4.204;2022-09-12T10:21:29;23.30;99.90
15717;DHT22;7960;50.908;4.204;2022-09-12T10:24:17;23.40;99.90
15717;DHT22;7960;50.908;4.204;2022-09-12T10:26:49;23.30;99.90
15717;DHT22;7960;50.908;4.204;2022-09-12T10:29:21;23.20;99.90
15717;DHT22;7960;50.908;4.204;2022-09-12T10:31:51;23.30;99.90
15717;DHT22;7960;50.908;4.204;2022-09-12T10:34:27;23.30;99.90
15717;DHT22;7960;50.908;4.204;2022-09-12T10:37:00;23.40;99.90
15717;DHT22;7960;50.908;4.204;2022-09-12T10:39:28;23.50;99.90
15717;DHT22;7960;50.908;4.204;2022-09-12T10:41:56;23.60;99.90
15717;DHT22;7960;50.908;4.204;2022-09-12T10:44:26;23.70;99.90
15717;DHT22;7960;50.908;4.204;2022-09-12T10:46:54;23.80;99.90
15717;DHT22;7960;50.908;4.204;2022-09-12T10:49:25;23.60;99.90
15717;DHT22;7960;50.908;4.204;2022-09-12T10:51:55;24.00;99.90
15717;DHT22;7960;50.908;4.204;2022-09-12T10:54:25;24.00;99.90
15717;DHT22;7960;50.908;4.204;2022-09-12T10:57:05;24.00;99.90
15717;DHT22;7960;50.908;4.204;2022-09-12T10:59:49;23.90;99.90
15717;DHT22;7960;50.908;4.204;2022-09-12T11:02:27;23.90;99.90
15717;DHT22;7960;50.908;4.204;2022-09-12T11:05:01;24.10;99.90
15717;DHT22;7960;50.908;4.204;2022-09-12T11:07:45;24.00;99.90
15717;DHT22;7960;50.908;4.204;2022-09-12T11:10:28;24.20;99.90
15717;DHT22;7960;50.908;4.204;2022-09-12T11:13:06;24.20;99.90
15717;DHT22;7960;50.908;4.204;2022-09-12T11:15:55;24.10;99.90
15717;DHT22;7960;50.908;4.204;2022-09-12T11:18:43;24.40;99.90
15717;DHT22;7960;50.908;4.204;2022-09-12T11:21:39;24.60;99.90
15717;DHT22;7960;50.908;4.204;2022-09-12T11:24:27;24.80;99.90
15717;DHT22;7960;50.908;4.204;2022-09-12T11:27:06;24.80;99.90
15717;DHT22;7960;50.908;4.204;2022-09-12T11:29:46;24.80;99.90
15717;DHT22;7960;50.908;4.204;2022-09-12T11:32:37;24.80;99.90
15717;DHT22;7960;50.908;4.204;2022-09-12T11:35:15;24.90;99.90
15717;DHT22;7960;50.908;4.204;2022-09-12T11:40:41;25.00;99.90
15717;DHT22;7960;50.908;4.204;2022-09-12T11:43:21;24.90;99.90
15717;DHT22;7960;50.908;4.204;2022-09-12T11:45:50;25.10;99.90
15717;DHT22;7960;50.908;4.204;2022-09-12T11:48:33;25.30;99.90
15717;DHT22;7960;50.908;4.204;2022-09-12T11:51:05;25.40;99.90
15717;DHT22;7960;50.908;4.204;2022-09-12T11:53:38;25.30;99.90
15717;DHT22;7960;50.908;4.204;2022-09-12T11:56:14;25.40;99.90
15717;DHT22;7960;50.908;4.204;2022-09-12T11:58:48;25.30;99.90
15717;DHT22;7960;50.908;4.204;2022-09-12T12:01:19;25.60;99.90
15717;DHT22;7960;50.908;4.204;2022-09-12T12:03:47;25.60;99.80
15717;DHT22;7960;50.908;4.204;2022-09-12T12:06:19;25.90;99.80
15717;DHT22;7960;50.908;4.204;2022-09-12T12:08:49;25.90;99.50
15717;DHT22;7960;50.908;4.204;2022-09-12T12:11:26;26.10;99.30
15717;DHT22;7960;50.908;4.204;2022-09-12T12:13:56;26.30;99.40
15717;DHT22;7960;50.908;4.204;2022-09-12T12:16:26;26.50;98.50
15717;DHT22;7960;50.908;4.204;2022-09-12T12:18:56;26.50;98.20
15717;DHT22;7960;50.908;4.204;2022-09-12T12:21:36;26.60;97.90
15717;DHT22;7960;50.908;4.204;2022-09-12T12:24:16;26.60;97.60
15717;DHT22;7960;50.908;4.204;2022-09-12T12:26:54;26.30;97.00
15717;DHT22;7960;50.908;4.204;2022-09-12T12:29:41;26.20;97.80
15717;DHT22;7960;50.908;4.204;2022-09-12T12:32:20;26.20;97.70
15717;DHT22;7960;50.908;4.204;2022-09-12T12:34:47;26.40;98.00
15717;DHT22;7960;50.908;4.204;2022-09-12T12:37:46;25.90;97.60
15717;DHT22;7960;50.908;4.204;2022-09-12T12:40:24;26.30;97.60
15717;DHT22;7960;50.908;4.204;2022-09-12T12:43:03;26.60;97.20
15717;DHT22;7960;50.908;4.204;2022-09-12T12:46:05;26.80;96.90
15717;DHT22;7960;50.908;4.204;2022-09-12T12:48:45;26.30;96.60
15717;DHT22;7960;50.908;4.204;2022-09-12T12:51:28;26.10;97.30
15717;DHT22;7960;50.908;4.204;2022-09-12T12:53:56;25.90;97.40
15717;DHT22;7960;50.908;4.204;2022-09-12T12:56:34;25.90;96.60
15717;DHT22;7960;50.908;4.204;2022-09-12T12:59:10;26.10;96.30
15717;DHT22;7960;50.908;4.204;2022-09-12T13:01:44;26.30;96.10
15717;DHT22;7960;50.908;4.204;2022-09-12T13:04:14;26.60;96.40
15717;DHT22;7960;50.908;4.204;2022-09-12T13:06:43;27.20;96.20
15717;DHT22;7960;50.908;4.204;2022-09-12T13:09:20;27.60;95.30
15717;DHT22;7960;50.908;4.204;2022-09-12T13:11:57;28.00;94.70
15717;DHT22;7960;50.908;4.204;2022-09-12T13:14:46;28.50;93.80
15717;DHT22;7960;50.908;4.204;2022-09-12T13:17:19;28.00;93.80
15717;DHT22;7960;50.908;4.204;2022-09-12T13:19:47;27.40;94.20
15717;DHT22;7960;50.908;4.204;2022-09-12T13:22:15;27.80;94.30
15717;DHT22;7960;50.908;4.204;2022-09-12T13:24:43;28.30;93.50
15717;DHT22;7960;50.908;4.204;2022-09-12T13:27:19;28.20;93.50
15717;DHT22;7960;50.908;4.204;2022-09-12T13:29:46;28.90;92.20
15717;DHT22;7960;50.908;4.204;2022-09-12T13:32:14;29.00;91.60
